Capt E. Frank Thompson — WDG2784 — position and weather

sailwx.info

Track history (hours):
 
Tides and Currents Weather Stations Pressure Air Temp Water Temp Dewpoint Dewpoint Depression Visibility Wind Speed Wind Dir Waves Ship Positions

Capt E. Frank Thompson

Owner: Maine Dept. of Transportation/Ferry Service, Rockland, ME. More information available from US FCC via Universal Licensing System and Coast Guard Vessel Documentation Center.

Last reported at 2017-Dec-16 22:40 UTC. Time now 2017-Dec-17 04:18 UTC.
Position N 44°06' W 069°06'.

Length 47 m.

Type: Passenger vessel. MMSI: 367519240.

Date/timePositionNaut miles runAvg speedWind from/ knotsBaromVisibWave heightAir tempDewpointWater temp
2017-Dec-16 22:40N 44°06' W 069°06'1 6.7
2017-Dec-16 22:29N 44°06' W 069°05'612.0
2017-Dec-16 22:00N 44°05' W 068°57'510.5
2017-Dec-16 21:30N 44°03' W 068°50'0 0.0
2017-Dec-16 21:00N 44°03' W 068°50'4 7.5
2017-Dec-16 20:29N 44°04' W 068°55'612.4
2017-Dec-16 20:00N 44°06' W 069°03'2 4.6
2017-Dec-16 19:29N 44°06' W 069°06'2 3.4
2017-Dec-16 19:00N 44°06' W 069°04'611.6
2017-Dec-16 18:29N 44°05' W 068°56'5 9.8
2017-Dec-16 18:00N 44°03' W 068°50'0 0.0
2017-Dec-16 17:30N 44°03' W 068°50'0 0.0
2017-Dec-16 16:59N 44°03' W 068°50'1 1.1
2017-Dec-16 16:30N 44°02' W 068°51'612.4
2017-Dec-16 16:00N 44°05' W 068°59'611.4
2017-Dec-16 15:30N 44°06' W 069°06'0 0.0
2017-Dec-16 14:59N 44°06' W 069°06'5 9.7
2017-Dec-16 14:30N 44°06' W 069°00'611.4
2017-Dec-16 13:59N 44°03' W 068°53'2 3.3
2017-Dec-16 13:30N 44°03' W 068°50'1 1.9
2017-Dec-16 13:00N 44°03' W 068°52'611.8
2017-Dec-16 12:30N 44°05' W 068°59'510.8
2017-Dec-16 11:59N 44°06' W 069°06'0 0.1
2017-Dec-16 11:29N 44°06' W 069°06'0 0.0
2017-Dec-15 23:00N 44°06' W 069°06'5 9.4
2017-Dec-15 22:30N 44°06' W 069°00'611.9
2017-Dec-15 22:00N 44°03' W 068°52'2 3.0
2017-Dec-15 21:29N 44°02' W 068°50'510.5
2017-Dec-15 21:00N 44°05' W 068°57'612.2
2017-Dec-15 20:30N 44°06' W 069°05'1 2.3
2017-Dec-15 19:59N 44°06' W 069°06'1 1.9
2017-Dec-15 19:29N 44°06' W 069°06'2 3.7
2017-Dec-15 19:00N 44°07' W 069°04'2 1.0
2017-Dec-15 17:13N 44°06' W 069°06'0 0.0
2017-Dec-15 16:59N 44°06' W 069°06'  
Track history (hours):
 
Tides and Currents Weather Stations Pressure Air Temp Water Temp Dewpoint Dewpoint Depression Visibility Wind Speed Wind Dir Waves Ship Positions

Capt E. Frank Thompson

Owner: Maine Dept. of Transportation/Ferry Service, Rockland, ME. More information available from US FCC via Universal Licensing System and Coast Guard Vessel Documentation Center.

Last reported at 2017-Dec-16 22:40 UTC. Time now 2017-Dec-17 04:18 UTC.
Position N 44°06' W 069°06'.

Length 47 m.

Type: Passenger vessel. MMSI: 367519240.

Date/timePositionNaut miles runAvg speedWind from/ knotsBaromVisibWave heightAir tempDewpointWater temp
2017-Dec-16 22:40N 44°06' W 069°06'1 6.7
2017-Dec-16 22:29N 44°06' W 069°05'612.0
2017-Dec-16 22:00N 44°05' W 068°57'510.5
2017-Dec-16 21:30N 44°03' W 068°50'0 0.0
2017-Dec-16 21:00N 44°03' W 068°50'4 7.5
2017-Dec-16 20:29N 44°04' W 068°55'612.4
2017-Dec-16 20:00N 44°06' W 069°03'2 4.6
2017-Dec-16 19:29N 44°06' W 069°06'2 3.4
2017-Dec-16 19:00N 44°06' W 069°04'611.6
2017-Dec-16 18:29N 44°05' W 068°56'5 9.8
2017-Dec-16 18:00N 44°03' W 068°50'0 0.0
2017-Dec-16 17:30N 44°03' W 068°50'0 0.0
2017-Dec-16 16:59N 44°03' W 068°50'1 1.1
2017-Dec-16 16:30N 44°02' W 068°51'612.4
2017-Dec-16 16:00N 44°05' W 068°59'611.4
2017-Dec-16 15:30N 44°06' W 069°06'0 0.0
2017-Dec-16 14:59N 44°06' W 069°06'5 9.7
2017-Dec-16 14:30N 44°06' W 069°00'611.4
2017-Dec-16 13:59N 44°03' W 068°53'2 3.3
2017-Dec-16 13:30N 44°03' W 068°50'1 1.9
2017-Dec-16 13:00N 44°03' W 068°52'611.8
2017-Dec-16 12:30N 44°05' W 068°59'510.8
2017-Dec-16 11:59N 44°06' W 069°06'0 0.1
2017-Dec-16 11:29N 44°06' W 069°06'0 0.0
2017-Dec-15 23:00N 44°06' W 069°06'5 9.4
2017-Dec-15 22:30N 44°06' W 069°00'611.9
2017-Dec-15 22:00N 44°03' W 068°52'2 3.0
2017-Dec-15 21:29N 44°02' W 068°50'510.5
2017-Dec-15 21:00N 44°05' W 068°57'612.2
2017-Dec-15 20:30N 44°06' W 069°05'1 2.3
2017-Dec-15 19:59N 44°06' W 069°06'1 1.9
2017-Dec-15 19:29N 44°06' W 069°06'2 3.7
2017-Dec-15 19:00N 44°07' W 069°04'2 1.0
2017-Dec-15 17:13N 44°06' W 069°06'0 0.0
2017-Dec-15 16:59N 44°06' W 069°06'  

Dump ship's entire track history